sensor_id;sensor_type;location;lat;lon;timestamp;P1;durP1;ratioP1;P2;durP2;ratioP2
55815;SDS011;41744;52.404;16.942;2023-08-21T00:01:14;7.50;;;4.95;;
55815;SDS011;41744;52.404;16.942;2023-08-21T00:03:40;10.63;;;5.18;;
55815;SDS011;41744;52.404;16.942;2023-08-21T00:06:06;7.18;;;4.93;;
55815;SDS011;41744;52.404;16.942;2023-08-21T00:08:32;8.02;;;4.80;;
55815;SDS011;41744;52.404;16.942;2023-08-21T00:10:58;8.13;;;5.13;;
55815;SDS011;41744;52.404;16.942;2023-08-21T00:13:24;8.38;;;4.93;;
55815;SDS011;41744;52.404;16.942;2023-08-21T00:15:50;7.57;;;5.22;;
55815;SDS011;41744;52.404;16.942;2023-08-21T00:18:17;7.68;;;4.95;;
55815;SDS011;41744;52.404;16.942;2023-08-21T00:20:43;8.38;;;5.45;;
55815;SDS011;41744;52.404;16.942;2023-08-21T00:23:09;7.35;;;4.75;;
55815;SDS011;41744;52.404;16.942;2023-08-21T00:25:35;8.75;;;4.97;;
55815;SDS011;41744;52.404;16.942;2023-08-21T00:28:01;8.57;;;4.88;;
55815;SDS011;41744;52.404;16.942;2023-08-21T00:30:27;7.65;;;5.20;;
55815;SDS011;41744;52.404;16.942;2023-08-21T00:32:53;7.35;;;5.07;;
55815;SDS011;41744;52.404;16.942;2023-08-21T00:35:19;7.70;;;5.30;;
55815;SDS011;41744;52.404;16.942;2023-08-21T00:37:45;7.68;;;5.15;;
55815;SDS011;41744;52.404;16.942;2023-08-21T00:40:12;9.88;;;5.70;;
55815;SDS011;41744;52.404;16.942;2023-08-21T00:45:48;7.38;;;5.10;;
55815;SDS011;41744;52.404;16.942;2023-08-21T00:48:15;7.80;;;4.97;;
55815;SDS011;41744;52.404;16.942;2023-08-21T00:50:41;7.15;;;4.97;;
55815;SDS011;41744;52.404;16.942;2023-08-21T00:53:08;9.32;;;4.78;;
55815;SDS011;41744;52.404;16.942;2023-08-21T00:55:34;9.85;;;5.55;;
55815;SDS011;41744;52.404;16.942;2023-08-21T00:58:00;8.40;;;5.28;;
55815;SDS011;41744;52.404;16.942;2023-08-21T01:00:28;9.05;;;5.90;;
55815;SDS011;41744;52.404;16.942;2023-08-21T01:05:58;9.75;;;5.70;;
55815;SDS011;41744;52.404;16.942;2023-08-21T01:13:55;9.00;;;5.10;;
55815;SDS011;41744;52.404;16.942;2023-08-21T01:16:24;8.00;;;5.22;;
55815;SDS011;41744;52.404;16.942;2023-08-21T01:18:50;7.88;;;5.43;;
55815;SDS011;41744;52.404;16.942;2023-08-21T01:21:17;8.98;;;5.95;;
55815;SDS011;41744;52.404;16.942;2023-08-21T01:23:43;9.10;;;5.57;;
55815;SDS011;41744;52.404;16.942;2023-08-21T01:26:09;8.52;;;5.50;;
55815;SDS011;41744;52.404;16.942;2023-08-21T01:28:35;9.43;;;5.38;;
55815;SDS011;41744;52.404;16.942;2023-08-21T01:33:30;8.40;;;5.30;;
55815;SDS011;41744;52.404;16.942;2023-08-21T01:35:59;9.57;;;5.68;;
55815;SDS011;41744;52.404;16.942;2023-08-21T01:38:28;8.65;;;5.72;;
55815;SDS011;41744;52.404;16.942;2023-08-21T01:40:54;7.25;;;5.07;;
55815;SDS011;41744;52.404;16.942;2023-08-21T01:43:20;9.30;;;5.30;;
55815;SDS011;41744;52.404;16.942;2023-08-21T01:45:46;10.82;;;6.20;;
55815;SDS011;41744;52.404;16.942;2023-08-21T01:48:12;8.57;;;5.35;;
55815;SDS011;41744;52.404;16.942;2023-08-21T01:50:38;8.77;;;5.25;;
55815;SDS011;41744;52.404;16.942;2023-08-21T01:56:08;7.20;;;4.82;;
55815;SDS011;41744;52.404;16.942;2023-08-21T01:58:34;9.35;;;5.10;;
55815;SDS011;41744;52.404;16.942;2023-08-21T02:04:04;6.93;;;4.75;;
55815;SDS011;41744;52.404;16.942;2023-08-21T02:06:30;8.48;;;5.30;;
55815;SDS011;41744;52.404;16.942;2023-08-21T02:08:56;10.55;;;4.50;;
55815;SDS011;41744;52.404;16.942;2023-08-21T02:14:25;7.38;;;4.82;;
55815;SDS011;41744;52.404;16.942;2023-08-21T02:16:51;6.75;;;4.40;;
55815;SDS011;41744;52.404;16.942;2023-08-21T02:19:17;9.95;;;5.13;;
55815;SDS011;41744;52.404;16.942;2023-08-21T02:21:43;6.80;;;4.63;;
55815;SDS011;41744;52.404;16.942;2023-08-21T02:24:09;8.80;;;4.75;;
55815;SDS011;41744;52.404;16.942;2023-08-21T02:26:35;7.45;;;4.30;;
55815;SDS011;41744;52.404;16.942;2023-08-21T02:29:01;7.15;;;4.63;;
55815;SDS011;41744;52.404;16.942;2023-08-21T02:34:31;6.65;;;4.50;;
55815;SDS011;41744;52.404;16.942;2023-08-21T02:36:57;7.57;;;4.60;;
55815;SDS011;41744;52.404;16.942;2023-08-21T02:39:23;9.07;;;4.35;;
55815;SDS011;41744;52.404;16.942;2023-08-21T02:41:49;9.82;;;5.10;;
55815;SDS011;41744;52.404;16.942;2023-08-21T02:44:15;6.97;;;4.63;;
55815;SDS011;41744;52.404;16.942;2023-08-21T02:46:41;7.85;;;4.45;;
55815;SDS011;41744;52.404;16.942;2023-08-21T02:49:07;7.68;;;4.35;;
55815;SDS011;41744;52.404;16.942;2023-08-21T02:51:33;8.18;;;4.50;;
55815;SDS011;41744;52.404;16.942;2023-08-21T02:53:59;7.55;;;4.53;;
55815;SDS011;41744;52.404;16.942;2023-08-21T02:56:26;8.27;;;4.47;;
55815;SDS011;41744;52.404;16.942;2023-08-21T02:58:52;7.60;;;4.40;;
55815;SDS011;41744;52.404;16.942;2023-08-21T03:04:21;5.40;;;3.67;;
55815;SDS011;41744;52.404;16.942;2023-08-21T03:06:48;7.70;;;4.15;;
55815;SDS011;41744;52.404;16.942;2023-08-21T03:09:14;7.32;;;4.38;;
55815;SDS011;41744;52.404;16.942;2023-08-21T03:11:40;7.90;;;4.30;;
55815;SDS011;41744;52.404;16.942;2023-08-21T03:14:06;5.80;;;4.10;;
55815;SDS011;41744;52.404;16.942;2023-08-21T03:16:32;6.70;;;4.03;;
55815;SDS011;41744;52.404;16.942;2023-08-21T03:18:58;10.35;;;4.07;;
55815;SDS011;41744;52.404;16.942;2023-08-21T03:21:25;5.90;;;3.97;;
55815;SDS011;41744;52.404;16.942;2023-08-21T03:23:53;8.40;;;4.43;;
55815;SDS011;41744;52.404;16.942;2023-08-21T03:26:19;8.32;;;4.13;;
55815;SDS011;41744;52.404;16.942;2023-08-21T03:28:45;6.28;;;4.03;;
55815;SDS011;41744;52.404;16.942;2023-08-21T03:34:14;8.15;;;4.43;;
55815;SDS011;41744;52.404;16.942;2023-08-21T03:36:40;6.55;;;4.47;;
55815;SDS011;41744;52.404;16.942;2023-08-21T03:39:06;7.18;;;4.25;;
55815;SDS011;41744;52.404;16.942;2023-08-21T03:41:32;8.55;;;4.63;;
55815;SDS011;41744;52.404;16.942;2023-08-21T03:43:58;8.63;;;4.32;;
55815;SDS011;41744;52.404;16.942;2023-08-21T03:46:24;6.10;;;4.38;;
55815;SDS011;41744;52.404;16.942;2023-08-21T03:48:51;7.90;;;4.45;;
55815;SDS011;41744;52.404;16.942;2023-08-21T03:51:17;8.32;;;4.32;;
55815;SDS011;41744;52.404;16.942;2023-08-21T03:53:43;13.50;;;4.70;;
55815;SDS011;41744;52.404;16.942;2023-08-21T03:56:09;9.32;;;4.22;;
55815;SDS011;41744;52.404;16.942;2023-08-21T03:58:35;9.80;;;4.63;;
55815;SDS011;41744;52.404;16.942;2023-08-21T04:04:04;10.50;;;4.55;;
55815;SDS011;41744;52.404;16.942;2023-08-21T04:06:31;9.00;;;4.25;;
55815;SDS011;41744;52.404;16.942;2023-08-21T04:08:56;12.52;;;4.53;;
55815;SDS011;41744;52.404;16.942;2023-08-21T04:14:26;7.63;;;4.32;;
55815;SDS011;41744;52.404;16.942;2023-08-21T04:16:52;7.63;;;4.43;;
55815;SDS011;41744;52.404;16.942;2023-08-21T04:19:18;9.00;;;4.22;;
55815;SDS011;41744;52.404;16.942;2023-08-21T04:21:44;10.07;;;4.40;;
55815;SDS011;41744;52.404;16.942;2023-08-21T04:24:10;5.88;;;4.10;;
55815;SDS011;41744;52.404;16.942;2023-08-21T04:26:36;9.85;;;4.60;;
55815;SDS011;41744;52.404;16.942;2023-08-21T04:29:02;7.18;;;4.20;;
55815;SDS011;41744;52.404;16.942;2023-08-21T04:34:32;8.05;;;4.68;;
55815;SDS011;41744;52.404;16.942;2023-08-21T04:36:58;9.02;;;4.30;;
55815;SDS011;41744;52.404;16.942;2023-08-21T04:39:24;8.43;;;4.38;;
55815;SDS011;41744;52.404;16.942;2023-08-21T04:41:50;12.63;;;4.55;;
55815;SDS011;41744;52.404;16.942;2023-08-21T04:44:16;12.27;;;4.82;;
55815;SDS011;41744;52.404;16.942;2023-08-21T04:46:43;18.30;;;5.22;;
55815;SDS011;41744;52.404;16.942;2023-08-21T04:49:09;8.82;;;4.60;;
55815;SDS011;41744;52.404;16.942;2023-08-21T04:51:35;12.75;;;5.00;;
55815;SDS011;41744;52.404;16.942;2023-08-21T04:54:01;9.70;;;4.47;;
55815;SDS011;41744;52.404;16.942;2023-08-21T04:56:27;9.05;;;4.50;;
55815;SDS011;41744;52.404;16.942;2023-08-21T04:58:53;8.15;;;4.22;;
55815;SDS011;41744;52.404;16.942;2023-08-21T05:04:29;6.93;;;4.05;;
55815;SDS011;41744;52.404;16.942;2023-08-21T05:06:55;8.18;;;4.43;;
55815;SDS011;41744;52.404;16.942;2023-08-21T05:09:21;5.85;;;3.97;;
55815;SDS011;41744;52.404;16.942;2023-08-21T05:11:47;7.70;;;3.88;;
55815;SDS011;41744;52.404;16.942;2023-08-21T05:14:13;7.93;;;4.28;;
55815;SDS011;41744;52.404;16.942;2023-08-21T05:16:39;10.85;;;4.10;;
55815;SDS011;41744;52.404;16.942;2023-08-21T05:19:05;7.13;;;4.00;;
55815;SDS011;41744;52.404;16.942;2023-08-21T05:21:32;8.70;;;4.25;;
55815;SDS011;41744;52.404;16.942;2023-08-21T05:23:58;7.22;;;4.05;;
55815;SDS011;41744;52.404;16.942;2023-08-21T05:26:24;7.05;;;3.92;;
55815;SDS011;41744;52.404;16.942;2023-08-21T05:28:50;6.90;;;4.22;;
55815;SDS011;41744;52.404;16.942;2023-08-21T05:34:19;5.82;;;3.40;;
55815;SDS011;41744;52.404;16.942;2023-08-21T05:36:45;9.70;;;4.80;;
55815;SDS011;41744;52.404;16.942;2023-08-21T05:39:11;6.47;;;3.58;;
55815;SDS011;41744;52.404;16.942;2023-08-21T05:41:38;6.28;;;3.42;;
55815;SDS011;41744;52.404;16.942;2023-08-21T05:44:04;7.53;;;3.70;;
55815;SDS011;41744;52.404;16.942;2023-08-21T05:46:30;6.43;;;3.47;;
55815;SDS011;41744;52.404;16.942;2023-08-21T05:48:56;5.07;;;3.10;;
55815;SDS011;41744;52.404;16.942;2023-08-21T05:51:22;7.03;;;4.10;;
55815;SDS011;41744;52.404;16.942;2023-08-21T05:53:48;6.10;;;4.00;;
55815;SDS011;41744;52.404;16.942;2023-08-21T05:56:14;6.75;;;3.70;;
55815;SDS011;41744;52.404;16.942;2023-08-21T05:58:40;10.70;;;3.53;;
55815;SDS011;41744;52.404;16.942;2023-08-21T06:04:09;6.97;;;3.00;;
55815;SDS011;41744;52.404;16.942;2023-08-21T06:06:35;5.55;;;3.28;;
55815;SDS011;41744;52.404;16.942;2023-08-21T06:09:01;5.07;;;3.22;;
55815;SDS011;41744;52.404;16.942;2023-08-21T06:11:28;8.13;;;4.15;;
55815;SDS011;41744;52.404;16.942;2023-08-21T06:13:54;6.38;;;3.60;;
55815;SDS011;41744;52.404;16.942;2023-08-21T06:16:20;6.80;;;3.50;;
55815;SDS011;41744;52.404;16.942;2023-08-21T06:18:46;5.20;;;3.47;;
55815;SDS011;41744;52.404;16.942;2023-08-21T06:21:12;5.55;;;3.30;;
55815;SDS011;41744;52.404;16.942;2023-08-21T06:23:38;9.30;;;3.55;;
55815;SDS011;41744;52.404;16.942;2023-08-21T06:26:04;6.07;;;3.33;;
55815;SDS011;41744;52.404;16.942;2023-08-21T06:28:30;5.90;;;3.50;;
55815;SDS011;41744;52.404;16.942;2023-08-21T06:33:59;6.20;;;3.10;;
55815;SDS011;41744;52.404;16.942;2023-08-21T06:36:25;6.75;;;3.25;;
55815;SDS011;41744;52.404;16.942;2023-08-21T06:38:51;6.07;;;3.28;;
55815;SDS011;41744;52.404;16.942;2023-08-21T06:44:21;8.38;;;3.45;;
55815;SDS011;41744;52.404;16.942;2023-08-21T06:46:47;9.98;;;3.65;;
55815;SDS011;41744;52.404;16.942;2023-08-21T06:49:13;7.70;;;3.05;;
55815;SDS011;41744;52.404;16.942;2023-08-21T06:51:39;11.50;;;4.40;;
55815;SDS011;41744;52.404;16.942;2023-08-21T06:54:05;6.55;;;3.30;;
55815;SDS011;41744;52.404;16.942;2023-08-21T06:59:35;6.72;;;2.90;;
55815;SDS011;41744;52.404;16.942;2023-08-21T07:05:05;3.75;;;2.33;;
55815;SDS011;41744;52.404;16.942;2023-08-21T07:07:31;8.93;;;2.75;;
55815;SDS011;41744;52.404;16.942;2023-08-21T07:09:57;7.93;;;3.28;;
55815;SDS011;41744;52.404;16.942;2023-08-21T07:12:23;6.22;;;3.15;;
55815;SDS011;41744;52.404;16.942;2023-08-21T07:14:49;6.05;;;3.00;;
55815;SDS011;41744;52.404;16.942;2023-08-21T07:17:15;6.22;;;2.83;;
55815;SDS011;41744;52.404;16.942;2023-08-21T07:19:41;5.88;;;2.65;;
55815;SDS011;41744;52.404;16.942;2023-08-21T07:25:18;7.40;;;3.75;;
55815;SDS011;41744;52.404;16.942;2023-08-21T07:27:43;4.85;;;3.22;;
55815;SDS011;41744;52.404;16.942;2023-08-21T07:30:10;5.90;;;3.10;;
55815;SDS011;41744;52.404;16.942;2023-08-21T07:32:36;5.25;;;3.20;;
55815;SDS011;41744;52.404;16.942;2023-08-21T07:35:02;4.15;;;2.60;;
55815;SDS011;41744;52.404;16.942;2023-08-21T07:37:28;6.70;;;3.03;;
55815;SDS011;41744;52.404;16.942;2023-08-21T07:39:54;7.20;;;2.50;;
55815;SDS011;41744;52.404;16.942;2023-08-21T07:42:22;8.30;;;3.13;;
55815;SDS011;41744;52.404;16.942;2023-08-21T07:44:48;7.70;;;2.67;;
55815;SDS011;41744;52.404;16.942;2023-08-21T07:47:15;6.88;;;2.90;;
55815;SDS011;41744;52.404;16.942;2023-08-21T07:49:41;7.10;;;2.80;;
55815;SDS011;41744;52.404;16.942;2023-08-21T07:55:17;5.50;;;2.65;;
55815;SDS011;41744;52.404;16.942;2023-08-21T07:57:43;8.82;;;3.40;;
55815;SDS011;41744;52.404;16.942;2023-08-21T08:00:09;6.68;;;3.13;;
55815;SDS011;41744;52.404;16.942;2023-08-21T08:02:35;7.18;;;2.97;;
55815;SDS011;41744;52.404;16.942;2023-08-21T08:05:01;6.00;;;3.08;;
55815;SDS011;41744;52.404;16.942;2023-08-21T08:07:27;36.13;;;9.57;;
55815;SDS011;41744;52.404;16.942;2023-08-21T08:09:53;12.15;;;3.95;;
55815;SDS011;41744;52.404;16.942;2023-08-21T08:15:23;12.15;;;3.70;;
55815;SDS011;41744;52.404;16.942;2023-08-21T08:17:49;18.48;;;4.03;;
55815;SDS011;41744;52.404;16.942;2023-08-21T08:20:18;10.73;;;4.32;;
55815;SDS011;41744;52.404;16.942;2023-08-21T08:22:44;10.27;;;4.28;;
55815;SDS011;41744;52.404;16.942;2023-08-21T08:25:10;14.90;;;5.30;;
55815;SDS011;41744;52.404;16.942;2023-08-21T08:27:36;13.70;;;4.55;;
55815;SDS011;41744;52.404;16.942;2023-08-21T08:30:03;6.75;;;3.00;;
55815;SDS011;41744;52.404;16.942;2023-08-21T08:32:29;6.00;;;2.50;;
55815;SDS011;41744;52.404;16.942;2023-08-21T08:34:55;7.28;;;2.65;;
55815;SDS011;41744;52.404;16.942;2023-08-21T08:37:21;5.03;;;2.50;;
55815;SDS011;41744;52.404;16.942;2023-08-21T08:39:47;7.03;;;2.50;;
55815;SDS011;41744;52.404;16.942;2023-08-21T08:45:16;4.57;;;3.17;;
55815;SDS011;41744;52.404;16.942;2023-08-21T08:47:46;9.52;;;3.10;;
55815;SDS011;41744;52.404;16.942;2023-08-21T08:50:12;5.10;;;2.75;;
55815;SDS011;41744;52.404;16.942;2023-08-21T08:52:39;10.25;;;3.20;;
55815;SDS011;41744;52.404;16.942;2023-08-21T08:55:05;8.93;;;2.60;;
55815;SDS011;41744;52.404;16.942;2023-08-21T08:57:32;7.97;;;2.67;;
55815;SDS011;41744;52.404;16.942;2023-08-21T08:59:59;5.95;;;2.70;;
55815;SDS011;41744;52.404;16.942;2023-08-21T09:05:28;6.78;;;3.08;;
55815;SDS011;41744;52.404;16.942;2023-08-21T09:08:13;6.88;;;3.00;;
55815;SDS011;41744;52.404;16.942;2023-08-21T09:10:40;5.22;;;2.63;;
55815;SDS011;41744;52.404;16.942;2023-08-21T09:16:10;8.27;;;3.38;;
55815;SDS011;41744;52.404;16.942;2023-08-21T09:18:36;7.57;;;2.55;;
55815;SDS011;41744;52.404;16.942;2023-08-21T09:21:03;6.20;;;2.53;;
55815;SDS011;41744;52.404;16.942;2023-08-21T09:23:31;8.40;;;2.75;;
55815;SDS011;41744;52.404;16.942;2023-08-21T09:25:57;5.43;;;2.53;;
55815;SDS011;41744;52.404;16.942;2023-08-21T09:28:23;4.28;;;2.38;;
55815;SDS011;41744;52.404;16.942;2023-08-21T09:33:19;5.53;;;2.00;;
55815;SDS011;41744;52.404;16.942;2023-08-21T09:35:46;4.97;;;2.42;;
55815;SDS011;41744;52.404;16.942;2023-08-21T09:38:12;5.13;;;2.33;;
55815;SDS011;41744;52.404;16.942;2023-08-21T09:40:43;2.72;;;2.20;;
55815;SDS011;41744;52.404;16.942;2023-08-21T09:46:16;4.65;;;2.40;;
55815;SDS011;41744;52.404;16.942;2023-08-21T09:48:45;4.22;;;2.20;;
55815;SDS011;41744;52.404;16.942;2023-08-21T09:54:22;6.53;;;3.25;;
55815;SDS011;41744;52.404;16.942;2023-08-21T09:56:48;9.32;;;3.20;;
55815;SDS011;41744;52.404;16.942;2023-08-21T09:59:14;5.18;;;2.63;;
55815;SDS011;41744;52.404;16.942;2023-08-21T10:04:44;7.60;;;2.90;;
55815;SDS011;41744;52.404;16.942;2023-08-21T10:07:11;4.53;;;2.38;;
55815;SDS011;41744;52.404;16.942;2023-08-21T10:09:39;8.88;;;3.22;;
55815;SDS011;41744;52.404;16.942;2023-08-21T10:12:06;8.48;;;3.08;;
55815;SDS011;41744;52.404;16.942;2023-08-21T10:14:34;5.90;;;2.47;;
55815;SDS011;41744;52.404;16.942;2023-08-21T10:17:00;5.70;;;2.45;;
55815;SDS011;41744;52.404;16.942;2023-08-21T10:19:32;7.10;;;2.47;;
55815;SDS011;41744;52.404;16.942;2023-08-21T10:25:02;4.55;;;2.40;;
55815;SDS011;41744;52.404;16.942;2023-08-21T10:30:32;8.90;;;2.75;;
55815;SDS011;41744;52.404;16.942;2023-08-21T10:32:58;7.00;;;2.65;;
55815;SDS011;41744;52.404;16.942;2023-08-21T10:35:25;6.93;;;3.15;;
55815;SDS011;41744;52.404;16.942;2023-08-21T10:40:36;6.05;;;2.78;;
55815;SDS011;41744;52.404;16.942;2023-08-21T10:43:02;6.03;;;3.13;;
55815;SDS011;41744;52.404;16.942;2023-08-21T10:45:29;4.80;;;2.80;;
55815;SDS011;41744;52.404;16.942;2023-08-21T10:47:58;9.50;;;2.88;;
55815;SDS011;41744;52.404;16.942;2023-08-21T10:50:25;5.53;;;2.60;;
55815;SDS011;41744;52.404;16.942;2023-08-21T10:55:55;6.20;;;2.95;;
55815;SDS011;41744;52.404;16.942;2023-08-21T10:58:21;3.97;;;2.47;;
55815;SDS011;41744;52.404;16.942;2023-08-21T11:00:47;5.78;;;3.05;;
55815;SDS011;41744;52.404;16.942;2023-08-21T11:03:21;10.25;;;2.90;;
55815;SDS011;41744;52.404;16.942;2023-08-21T11:05:59;4.75;;;2.67;;
55815;SDS011;41744;52.404;16.942;2023-08-21T11:08:25;4.95;;;2.70;;
55815;SDS011;41744;52.404;16.942;2023-08-21T11:10:51;6.65;;;3.00;;
55815;SDS011;41744;52.404;16.942;2023-08-21T11:13:18;7.63;;;2.92;;
55815;SDS011;41744;52.404;16.942;2023-08-21T11:15:45;8.32;;;3.20;;
55815;SDS011;41744;52.404;16.942;2023-08-21T11:18:11;7.63;;;3.10;;
55815;SDS011;41744;52.404;16.942;2023-08-21T11:20:37;8.10;;;2.90;;
55815;SDS011;41744;52.404;16.942;2023-08-21T11:23:04;5.57;;;3.10;;
55815;SDS011;41744;52.404;16.942;2023-08-21T11:25:32;6.07;;;2.75;;
55815;SDS011;41744;52.404;16.942;2023-08-21T11:27:58;5.35;;;2.97;;
55815;SDS011;41744;52.404;16.942;2023-08-21T11:30:24;5.68;;;3.05;;
55815;SDS011;41744;52.404;16.942;2023-08-21T11:36:01;6.55;;;2.70;;
55815;SDS011;41744;52.404;16.942;2023-08-21T11:38:27;5.05;;;2.97;;
55815;SDS011;41744;52.404;16.942;2023-08-21T11:41:01;5.80;;;3.15;;
55815;SDS011;41744;52.404;16.942;2023-08-21T11:43:40;6.20;;;3.30;;
55815;SDS011;41744;52.404;16.942;2023-08-21T11:46:07;6.10;;;2.70;;
55815;SDS011;41744;52.404;16.942;2023-08-21T11:48:33;6.47;;;3.33;;
55815;SDS011;41744;52.404;16.942;2023-08-21T11:54:04;4.38;;;2.90;;
55815;SDS011;41744;52.404;16.942;2023-08-21T11:56:31;5.18;;;2.97;;
55815;SDS011;41744;52.404;16.942;2023-08-21T11:58:57;8.02;;;2.75;;
55815;SDS011;41744;52.404;16.942;2023-08-21T12:01:24;6.28;;;3.00;;
55815;SDS011;41744;52.404;16.942;2023-08-21T12:03:50;9.02;;;2.70;;
55815;SDS011;41744;52.404;16.942;2023-08-21T12:06:22;5.03;;;2.90;;
55815;SDS011;41744;52.404;16.942;2023-08-21T12:08:50;8.32;;;3.55;;
55815;SDS011;41744;52.404;16.942;2023-08-21T12:14:19;8.02;;;3.25;;
55815;SDS011;41744;52.404;16.942;2023-08-21T12:16:46;7.03;;;3.30;;
55815;SDS011;41744;52.404;16.942;2023-08-21T12:19:11;8.75;;;3.13;;
55815;SDS011;41744;52.404;16.942;2023-08-21T12:24:43;7.13;;;2.75;;
55815;SDS011;41744;52.404;16.942;2023-08-21T12:27:09;4.85;;;2.72;;
55815;SDS011;41744;52.404;16.942;2023-08-21T12:29:35;5.57;;;3.20;;
55815;SDS011;41744;52.404;16.942;2023-08-21T12:32:01;7.47;;;3.15;;
55815;SDS011;41744;52.404;16.942;2023-08-21T12:34:28;7.00;;;3.40;;
55815;SDS011;41744;52.404;16.942;2023-08-21T12:36:54;9.60;;;3.55;;
55815;SDS011;41744;52.404;16.942;2023-08-21T12:39:20;5.85;;;3.45;;
55815;SDS011;41744;52.404;16.942;2023-08-21T12:44:50;5.82;;;2.80;;
55815;SDS011;41744;52.404;16.942;2023-08-21T12:47:16;5.97;;;2.88;;
55815;SDS011;41744;52.404;16.942;2023-08-21T12:49:42;5.45;;;3.15;;
55815;SDS011;41744;52.404;16.942;2023-08-21T12:52:08;6.05;;;2.90;;
55815;SDS011;41744;52.404;16.942;2023-08-21T12:54:34;6.35;;;3.20;;
55815;SDS011;41744;52.404;16.942;2023-08-21T12:57:00;6.35;;;3.30;;
55815;SDS011;41744;52.404;16.942;2023-08-21T12:59:26;7.65;;;3.40;;
55815;SDS011;41744;52.404;16.942;2023-08-21T13:01:52;6.07;;;3.10;;
55815;SDS011;41744;52.404;16.942;2023-08-21T13:04:18;5.65;;;3.35;;
55815;SDS011;41744;52.404;16.942;2023-08-21T13:06:44;9.13;;;3.17;;
55815;SDS011;41744;52.404;16.942;2023-08-21T13:09:10;7.28;;;2.95;;
55815;SDS011;41744;52.404;16.942;2023-08-21T13:14:40;6.78;;;3.00;;
55815;SDS011;41744;52.404;16.942;2023-08-21T13:17:06;8.50;;;3.13;;
55815;SDS011;41744;52.404;16.942;2023-08-21T13:19:32;5.20;;;3.28;;
55815;SDS011;41744;52.404;16.942;2023-08-21T13:21:58;5.70;;;3.30;;
55815;SDS011;41744;52.404;16.942;2023-08-21T13:24:24;5.43;;;3.30;;
55815;SDS011;41744;52.404;16.942;2023-08-21T13:26:53;8.32;;;3.20;;
55815;SDS011;41744;52.404;16.942;2023-08-21T13:29:19;5.18;;;3.00;;
55815;SDS011;41744;52.404;16.942;2023-08-21T13:31:45;8.20;;;3.28;;
55815;SDS011;41744;52.404;16.942;2023-08-21T13:34:11;7.82;;;3.15;;
55815;SDS011;41744;52.404;16.942;2023-08-21T13:36:37;4.72;;;3.10;;
55815;SDS011;41744;52.404;16.942;2023-08-21T13:39:03;9.05;;;3.55;;
55815;SDS011;41744;52.404;16.942;2023-08-21T13:44:34;8.45;;;3.55;;
55815;SDS011;41744;52.404;16.942;2023-08-21T13:47:00;5.72;;;3.58;;
55815;SDS011;41744;52.404;16.942;2023-08-21T13:49:26;8.40;;;3.35;;
55815;SDS011;41744;52.404;16.942;2023-08-21T13:51:53;8.32;;;3.45;;
55815;SDS011;41744;52.404;16.942;2023-08-21T13:54:19;6.63;;;3.83;;
55815;SDS011;41744;52.404;16.942;2023-08-21T13:56:45;5.88;;;3.53;;
55815;SDS011;41744;52.404;16.942;2023-08-21T13:59:11;8.25;;;3.55;;
55815;SDS011;41744;52.404;16.942;2023-08-21T14:01:38;23.35;;;10.00;;
55815;SDS011;41744;52.404;16.942;2023-08-21T14:04:04;89.30;;;44.58;;
55815;SDS011;41744;52.404;16.942;2023-08-21T14:06:30;71.43;;;36.42;;
55815;SDS011;41744;52.404;16.942;2023-08-21T14:08:56;38.15;;;20.42;;
55815;SDS011;41744;52.404;16.942;2023-08-21T14:14:26;27.17;;;14.50;;
55815;SDS011;41744;52.404;16.942;2023-08-21T14:16:52;35.35;;;18.30;;
55815;SDS011;41744;52.404;16.942;2023-08-21T14:19:18;34.22;;;17.02;;
55815;SDS011;41744;52.404;16.942;2023-08-21T14:21:44;24.30;;;9.20;;
55815;SDS011;41744;52.404;16.942;2023-08-21T14:24:10;20.35;;;10.48;;
55815;SDS011;41744;52.404;16.942;2023-08-21T14:26:36;38.47;;;19.60;;
55815;SDS011;41744;52.404;16.942;2023-08-21T14:29:04;37.22;;;18.15;;
55815;SDS011;41744;52.404;16.942;2023-08-21T14:31:31;33.83;;;16.98;;
55815;SDS011;41744;52.404;16.942;2023-08-21T14:33:57;34.17;;;16.63;;
55815;SDS011;41744;52.404;16.942;2023-08-21T14:36:23;19.58;;;9.52;;
55815;SDS011;41744;52.404;16.942;2023-08-21T14:38:49;11.15;;;7.05;;
55815;SDS011;41744;52.404;16.942;2023-08-21T14:44:19;31.83;;;16.67;;
55815;SDS011;41744;52.404;16.942;2023-08-21T14:46:45;29.15;;;15.80;;
55815;SDS011;41744;52.404;16.942;2023-08-21T14:49:11;21.65;;;11.35;;
55815;SDS011;41744;52.404;16.942;2023-08-21T14:51:38;30.63;;;14.00;;
55815;SDS011;41744;52.404;16.942;2023-08-21T14:54:04;31.50;;;16.25;;
55815;SDS011;41744;52.404;16.942;2023-08-21T14:56:30;16.77;;;10.05;;
55815;SDS011;41744;52.404;16.942;2023-08-21T15:02:01;74.20;;;36.85;;
55815;SDS011;41744;52.404;16.942;2023-08-21T15:04:27;52.30;;;26.75;;
55815;SDS011;41744;52.404;16.942;2023-08-21T15:06:53;21.52;;;9.52;;
55815;SDS011;41744;52.404;16.942;2023-08-21T15:09:19;25.75;;;14.90;;
55815;SDS011;41744;52.404;16.942;2023-08-21T15:14:49;34.45;;;17.83;;
55815;SDS011;41744;52.404;16.942;2023-08-21T15:17:16;19.00;;;8.68;;
55815;SDS011;41744;52.404;16.942;2023-08-21T15:19:42;16.73;;;7.95;;
55815;SDS011;41744;52.404;16.942;2023-08-21T15:22:08;20.35;;;10.50;;
55815;SDS011;41744;52.404;16.942;2023-08-21T15:24:34;28.20;;;16.35;;
55815;SDS011;41744;52.404;16.942;2023-08-21T15:27:00;20.13;;;10.93;;
55815;SDS011;41744;52.404;16.942;2023-08-21T15:29:26;23.45;;;11.80;;
55815;SDS011;41744;52.404;16.942;2023-08-21T15:34:55;20.48;;;12.48;;
55815;SDS011;41744;52.404;16.942;2023-08-21T15:37:21;18.92;;;9.18;;
55815;SDS011;41744;52.404;16.942;2023-08-21T15:39:48;15.70;;;6.55;;
55815;SDS011;41744;52.404;16.942;2023-08-21T15:42:14;19.95;;;10.00;;
55815;SDS011;41744;52.404;16.942;2023-08-21T15:44:40;18.38;;;9.38;;
55815;SDS011;41744;52.404;16.942;2023-08-21T15:47:06;18.10;;;10.38;;
55815;SDS011;41744;52.404;16.942;2023-08-21T15:49:32;11.90;;;7.68;;
55815;SDS011;41744;52.404;16.942;2023-08-21T15:51:58;15.93;;;9.55;;
55815;SDS011;41744;52.404;16.942;2023-08-21T15:54:29;14.60;;;7.35;;
55815;SDS011;41744;52.404;16.942;2023-08-21T15:56:55;17.17;;;9.05;;
55815;SDS011;41744;52.404;16.942;2023-08-21T15:59:21;14.85;;;8.30;;
55815;SDS011;41744;52.404;16.942;2023-08-21T16:04:51;25.50;;;14.45;;
55815;SDS011;41744;52.404;16.942;2023-08-21T16:07:17;24.27;;;13.20;;
55815;SDS011;41744;52.404;16.942;2023-08-21T16:09:43;19.08;;;9.80;;
55815;SDS011;41744;52.404;16.942;2023-08-21T16:12:09;12.20;;;7.28;;
55815;SDS011;41744;52.404;16.942;2023-08-21T16:14:35;8.95;;;5.82;;
55815;SDS011;41744;52.404;16.942;2023-08-21T16:17:01;12.30;;;5.60;;
55815;SDS011;41744;52.404;16.942;2023-08-21T16:19:27;9.88;;;5.18;;
55815;SDS011;41744;52.404;16.942;2023-08-21T16:21:53;11.40;;;4.70;;
55815;SDS011;41744;52.404;16.942;2023-08-21T16:24:19;7.05;;;4.32;;
55815;SDS011;41744;52.404;16.942;2023-08-21T16:26:46;5.95;;;3.40;;
55815;SDS011;41744;52.404;16.942;2023-08-21T16:29:12;6.53;;;4.00;;
55815;SDS011;41744;52.404;16.942;2023-08-21T16:34:42;8.82;;;3.67;;
55815;SDS011;41744;52.404;16.942;2023-08-21T16:37:08;7.18;;;3.83;;
55815;SDS011;41744;52.404;16.942;2023-08-21T16:39:34;9.75;;;3.80;;
55815;SDS011;41744;52.404;16.942;2023-08-21T16:42:00;11.38;;;3.47;;
55815;SDS011;41744;52.404;16.942;2023-08-21T16:44:27;5.45;;;3.83;;
55815;SDS011;41744;52.404;16.942;2023-08-21T16:46:53;11.85;;;3.97;;
55815;SDS011;41744;52.404;16.942;2023-08-21T16:49:19;7.78;;;3.88;;
55815;SDS011;41744;52.404;16.942;2023-08-21T16:51:45;6.95;;;3.75;;
55815;SDS011;41744;52.404;16.942;2023-08-21T16:54:11;5.93;;;4.00;;